createdAt,value
2022-08-17T00:01:03.120Z,98.99
2022-08-17T00:16:06.660Z,98.79
2022-08-17T00:31:07.025Z,97.32
2022-08-17T00:46:07.112Z,99.04
2022-08-17T01:01:07.274Z,94.64
2022-08-17T01:16:07.295Z,97.11
2022-08-17T01:31:07.383Z,95.39
2022-08-17T01:46:07.989Z,91.70
2022-08-17T02:01:08.538Z,91.30
2022-08-17T02:16:08.294Z,89.52
2022-08-17T02:31:08.375Z,91.85
2022-08-17T02:46:08.462Z,89.46
2022-08-17T03:01:08.562Z,91.73
2022-08-17T03:16:09.041Z,88.49
2022-08-17T03:31:08.929Z,88.23
2022-08-17T03:46:10.948Z,88.02
2022-08-17T04:01:14.232Z,82.36
2022-08-17T04:16:14.270Z,83.27
2022-08-17T04:31:15.678Z,81.31
2022-08-17T04:46:16.113Z,76.28
2022-08-17T05:01:16.444Z,74.29
2022-08-17T05:16:22.031Z,92.95
2022-08-17T05:31:22.127Z,99.99
2022-08-17T05:46:22.200Z,99.79
2022-08-17T06:01:22.838Z,91.47
2022-08-17T06:16:34.484Z,86.43
2022-08-17T06:31:27.978Z,84.84
2022-08-17T06:46:28.048Z,73.94
2022-08-17T07:01:28.546Z,70.60
2022-08-17T07:16:28.740Z,65.05
2022-08-17T07:31:29.340Z,62.79
2022-08-17T07:46:30.100Z,61.49
2022-08-17T08:01:39.322Z,57.01
2022-08-17T08:16:36.601Z,50.95
2022-08-17T08:31:42.028Z,52.89
2022-08-17T08:46:42.592Z,52.71
2022-08-17T09:01:43.377Z,48.77
2022-08-17T09:16:43.983Z,48.14
2022-08-17T09:31:48.830Z,48.27
2022-08-17T09:46:50.368Z,47.41
2022-08-17T10:01:51.417Z,47.46
2022-08-17T10:16:51.751Z,45.74
2022-08-17T10:31:52.168Z,44.35
2022-08-17T10:46:52.404Z,46.59
2022-08-17T11:01:52.505Z,43.09
2022-08-17T11:16:53.158Z,42.78
2022-08-17T11:31:54.518Z,42.29
2022-08-17T11:46:54.661Z,42.39
2022-08-17T12:01:54.777Z,40.39
2022-08-17T12:16:55.295Z,41.77
2022-08-17T12:31:54.891Z,39.20
2022-08-17T12:46:55.009Z,40.03
2022-08-17T13:01:55.260Z,40.64
2022-08-17T13:16:57.205Z,40.70
2022-08-17T13:32:04.169Z,43.21
2022-08-17T13:47:02.437Z,43.13
2022-08-17T14:02:02.591Z,42.33
2022-08-17T14:17:02.631Z,44.56
2022-08-17T14:32:04.029Z,45.29
2022-08-17T14:47:04.341Z,46.70
2022-08-17T15:02:04.431Z,43.96
2022-08-17T15:17:04.505Z,45.16
2022-08-17T15:32:04.620Z,46.00
2022-08-17T15:47:05.232Z,47.87
2022-08-17T16:03:47.027Z,50.07
2022-08-17T16:17:38.866Z,50.90
2022-08-17T16:32:16.001Z,53.63
2022-08-17T16:47:16.075Z,54.39
2022-08-17T17:02:16.181Z,57.51
2022-08-17T17:17:16.274Z,57.90
2022-08-17T17:32:17.280Z,62.88
2022-08-17T17:47:17.442Z,61.85
2022-08-17T18:02:18.131Z,61.98
2022-08-17T18:17:18.664Z,63.46
2022-08-17T18:32:18.738Z,65.40
2022-08-17T18:47:18.869Z,68.86
2022-08-17T19:02:34.581Z,70.25
2022-08-17T19:17:25.266Z,70.62
2022-08-17T19:32:25.753Z,71.34
2022-08-17T19:47:53.179Z,74.40
2022-08-17T20:02:31.393Z,75.99
2022-08-17T20:17:31.494Z,77.36
2022-08-17T20:32:31.557Z,80.35
2022-08-17T20:47:32.087Z,81.88
2022-08-17T21:02:32.548Z,84.56
2022-08-17T21:17:33.031Z,86.80
2022-08-17T21:32:33.124Z,88.34
2022-08-17T21:47:33.181Z,90.43
2022-08-17T22:02:33.318Z,91.97
2022-08-17T22:17:33.373Z,92.71
2022-08-17T22:32:33.445Z,94.31
2022-08-17T22:47:33.861Z,95.55
2022-08-17T23:02:34.543Z,96.30
2022-08-17T23:17:37.357Z,97.50
2022-08-17T23:32:38.930Z,97.60
2022-08-17T23:47:44.004Z,97.20
